Nearby METAR Reports

 

KPIB - Pine Belt Rgnl, Mississippi, USA
Distance from station: SSW 12mi, 19km
Updated: Wed, 23-Aug-2017 7:56am CDT
Clear
Clear
 Wind from N
Wind: N 5 mph , 7 km/h
Temperature: 79°F , 26°C
Dew Point: 75°F , 24°C
Humidity: 89%
Barometer: 30.01 inHg , 1016.3 hPa
Clouds: Clear
Visibility: 10 miles , 16 km
2017/08/23 12:56 KPIB 231256Z AUTO 35004KT 10SM CLR 26/24 A3001 RMK AO2 SLP161 T02560239
KHBG - Hattiesburg, Mississippi, USA
Distance from station: S 25mi, 40km
Updated: Wed, 23-Aug-2017 8:53am CDT
Clear
Clear
 Wind from NNW
Wind: NNW 7 mph , 11 km/h
Temperature: 82°F , 28°C
Heat Index: 89°F , 32°C
Dew Point: 75°F , 24°C
Humidity: 79%
Barometer: 30.01 inHg , 1016.3 hPa
Clouds: Clear
Visibility: 10 miles , 16 km
2017/08/23 13:53 KHBG 231353Z AUTO 33006KT 10SM CLR 28/24 A3001 RMK AO2 SLP158 T02780239
 
KMEI - Meridian/Key Fld, Mississippi, USA
Distance from station: NNE 57mi, 91km
Updated: Wed, 23-Aug-2017 7:58am CDT
Clear
Clear
 Wind from calm
Wind: Calm
Temperature: 79°F , 26°C
Dew Point: 75°F , 24°C
Humidity: 89%
Barometer: 30.00 inHg , 1015.9 hPa
Clouds: Clear
Visibility: 9 miles , 14 km
2017/08/23 12:58 KMEI 231258Z 00000KT 9SM CLR 26/24 A3000 RMK AO2 SLP155 T02610244
KJAN - Jackson, Mississippi, USA
Distance from station: NW 69mi, 111km
Updated: Wed, 23-Aug-2017 8:54am CDT
Partly cloudy
Partly cloudy
 Wind from WNW
Wind: WNW 5 mph , 7 km/h
Temperature: 82°F , 28°C
Heat Index: 89°F , 32°C
Dew Point: 75°F , 24°C
Humidity: 79%
Barometer: 30.01 inHg , 1016.3 hPa
Clouds: Partly cloudy
Visibility: 10 miles , 16 km
Cloud details: Partly cloudy 25000 ft
2017/08/23 13:54 KJAN 231354Z 29004KT 10SM SCT250 28/24 A3001 RMK AO2 SLP156 T02830239
 
K1R7 - Brookhaven, Mississippi, USA
Distance from station: W 70mi, 112km
Updated: Wed, 21-Jun-2017 3:15pm CDT
NOT Current
Mostly cloudy
Mostly cloudy
 Wind from ENE
Wind: ENE 3 mph , 6 km/h
Temperature: 77°F , 25°C
Dew Point: 75°F , 24°C
Humidity: 94%
Barometer: 29.83 inHg , 1010.2 hPa
Clouds: Mostly cloudy
Visibility: 10 miles , 16 km
Cloud details: Mostly cloudy 500 ft
2017/06/21 20:15 K1R7 212015Z AUTO 06003KT 10SM BKN005 25/24 A2983 RMK AO2
KHEZ - Natchez, Mississippi, USA
Distance from station: W 121mi, 195km
Updated: Wed, 23-Aug-2017 8:56am CDT
Clear
Clear
 Wind from NW
Wind: NW 5 mph , 7 km/h
Temperature: 81°F , 27°C
Heat Index: 87°F , 31°C
Dew Point: 75°F , 24°C
Humidity: 84%
Barometer: 30.02 inHg , 1016.6 hPa
Clouds: Clear
Visibility: 10 miles , 16 km
2017/08/23 13:56 KHEZ 231356Z AUTO 31004KT 10SM CLR 27/24 A3002 RMK AO2 SLP165 T02670239
 
KNMM - Meridian Nas, Mississippi, USA
Distance from station: NNE 74mi, 119km
Updated: Wed, 23-Aug-2017 7:56am CDT
Mostly cloudy
Mostly cloudy
 Wind from calm
Wind: Calm
Temperature: 75°F , 24°C
Dew Point: 72°F , 22°C
Humidity: 89%
Barometer: 30.01 inHg , 1016.3 hPa
Clouds: Mostly cloudy
Visibility: 10 miles , 16 km
Cloud details: Mostly cloudy 30000 ft
2017/08/23 12:56 KNMM 231256Z 00000KT 10SM BKN300 24/22 A3001 RMK SLP166 T02440222
KHKS - Jackson/Hawkins, Mississippi, USA
Distance from station: NW 76mi, 122km
Updated: Wed, 23-Aug-2017 8:53am CDT
Clear
Clear
 Wind from NW
Wind: NW 7 mph , 11 km/h
Temperature: 81°F , 27°C
Heat Index: 87°F , 31°C
Dew Point: 75°F , 24°C
Humidity: 84%
Barometer: 30.01 inHg , 1016.3 hPa
Clouds: Clear
Visibility: 10 miles , 16 km
2017/08/23 13:53 KHKS 231353Z 32006KT 10SM CLR 27/24 A3001 RMK AO2 SLP154 T02720244
 
KMCB - Mccomb, Mississippi, USA
Distance from station: WSW 79mi, 127km
Updated: Wed, 23-Aug-2017 8:53am CDT
Clear
Clear
 Wind from NNW
Wind: NNW 6 mph , 9 km/h
Temperature: 81°F , 27°C
Heat Index: 85°F , 29°C
Dew Point: 72°F , 22°C
Humidity: 74%
Barometer: 30.02 inHg , 1016.6 hPa
Clouds: Clear
Visibility: 10 miles , 16 km
2017/08/23 13:53 KMCB 231353Z AUTO 33005KT 10SM CLR 27/22 A3002 RMK AO2 SLP158 T02720222 TSNO
KGPT - Gulfport, Mississippi, USA
Distance from station: S 84mi, 135km
Updated: Wed, 23-Aug-2017 8:53am CDT
Clear
Clear
 Wind from calm
Wind: Calm
Temperature: 82°F , 28°C
Heat Index: 90°F , 32°C
Dew Point: 77°F , 25°C
Humidity: 84%
Barometer: 29.97 inHg , 1014.9 hPa
Clouds: Clear
Visibility: 10 miles , 16 km
2017/08/23 13:53 KGPT 231353Z 00000KT 10SM CLR 28/25 A2997 RMK AO2 SLP149 T02780250
 
KJVW - Raymond, Mississippi, USA
Distance from station: NW 84mi, 135km
Updated: Wed, 23-Aug-2017 8:55am CDT
Clear
Clear
 Wind from WNW
Wind: WNW 6 mph , 9 km/h
Temperature: 81°F , 27°C
Heat Index: 87°F , 31°C
Dew Point: 75°F , 24°C
Humidity: 84%
Barometer: 30.01 inHg , 1016.3 hPa
Clouds: Clear
Visibility: 7 miles , 11 km
2017/08/23 13:55 KJVW 231355Z AUTO 30005KT 7SM CLR 27/24 A3001 RMK AO2
KBIX - Biloxi/Keesler, Mississippi, USA
Distance from station: SSE 85mi, 137km
Updated: Wed, 23-Aug-2017 7:58am CDT
Clear
Clear
 Wind from NNE
Wind: NNE 3 mph , 6 km/h
Temperature: 79°F , 26°C
Dew Point: 75°F , 24°C
Humidity: 89%
Barometer: 29.98 inHg , 1015.2 hPa
Clouds: Clear
Visibility: 10 miles , 16 km
2017/08/23 12:58 KBIX 231258Z AUTO 03003KT 10SM CLR 26/24 A2998 RMK AO2 SLP155 T02570243
 
KMOB - Mobile/Bates, Alabama, USA
Distance from station: SE 87mi, 140km
Updated: Wed, 23-Aug-2017 7:56am CDT
Mostly cloudy
Mostly cloudy
 Wind from calm
Wind: Calm
Temperature: 79°F , 26°C
Dew Point: 75°F , 24°C
Humidity: 89%
Barometer: 30.01 inHg , 1016.3 hPa
Clouds: Mostly cloudy
Visibility: 7 miles , 11 km
Cloud details: Few Clouds 5000 ft
Partly cloudy 15000 ft
Mostly cloudy 25000 ft
2017/08/23 12:56 KMOB 231256Z 00000KT 7SM FEW050 SCT150 BKN250 26/24 A3001 RMK AO2 SLP157 T02560239
KHSA - Bay St Louis, Mississippi, USA
Distance from station: S 88mi, 141km
Updated: Wed, 23-Aug-2017 8:50am CDT
Clear
Clear
 Wind from calm
Wind: Calm
Temperature: 77°F , 25°C
Dew Point: 75°F , 24°C
Humidity: 94%
Barometer: 29.99 inHg , 1015.6 hPa
Clouds: Clear
Visibility: 10 miles , 16 km
2017/08/23 13:50 KHSA 231350Z 00000KT 10SM CLR 25/24 A2999
 
KPQL - Pascagoula, Mississippi, USA
Distance from station: SSE 90mi, 145km
Updated: Wed, 23-Aug-2017 8:53am CDT
Clear
Clear
 Wind from NNE
Wind: NNE 3 mph , 6 km/h
Temperature: 82°F , 28°C
Heat Index: 89°F , 32°C
Dew Point: 75°F , 24°C
Humidity: 79%
Barometer: 29.98 inHg , 1015.2 hPa
Clouds: Clear
Visibility: 10 miles , 16 km
2017/08/23 13:53 KPQL 231353Z AUTO 02003KT 10SM CLR 28/24 A2998 RMK AO2 SLP155 T02830239
KASD - Slidell 22, Louisiana, USA
Distance from station: SSW 94mi, 152km
Updated: Wed, 23-Aug-2017 8:53am CDT
Clear
Clear
 Wind from E
Wind: E 3 mph , 6 km/h
Temperature: 79°F , 26°C
Dew Point: 75°F , 24°C
Humidity: 89%
Barometer: 29.98 inHg , 1015.2 hPa
Clouds: Clear
Visibility: 10 miles , 16 km
2017/08/23 13:53 KASD 231353Z AUTO 09003KT 10SM CLR 26/24 A2998 RMK AO2 SLP151 T02610244
 
KBFM - Mobile/Brookley, Alabama, USA
Distance from station: SE 98mi, 158km
Updated: Wed, 23-Aug-2017 8:53am CDT
Few Clouds
Few Clouds
 Wind from ENE
Wind: ENE 3 mph , 6 km/h
Temperature: 82°F , 28°C
Heat Index: 91°F , 33°C
Dew Point: 79°F , 26°C
Humidity: 89%
Barometer: 30.00 inHg , 1015.9 hPa
Clouds: Few Clouds
Visibility: 10 miles , 16 km
Cloud details: Few Clouds 2000 ft
2017/08/23 13:53 KBFM 231353Z 06003KT 10SM FEW020 28/26 A3000 RMK AO2 SLP158 TCU DSNT SE T02780256
KHDC - Hammond, Louisiana, USA
Distance from station: SW 104mi, 167km
Updated: Wed, 23-Aug-2017 8:35am CDT
Clear
Clear
 Wind from calm
Wind: Calm
Temperature: 77°F , 25°C
Dew Point: 72°F , 22°C
Humidity: 83%
Barometer: 29.99 inHg , 1015.6 hPa
Clouds: Clear
Visibility: 10 miles , 16 km
2017/08/23 13:35 KHDC 231335Z AUTO 00000KT 10SM CLR 25/22 A2999 RMK AO2
 
KMSY - New Orleans, Louisiana, USA
Distance from station: SW 128mi, 206km
Updated: Wed, 23-Aug-2017 8:53am CDT
Mostly cloudy
Mostly cloudy
 Wind from WNW
Wind: WNW 3 mph , 6 km/h
Temperature: 82°F , 28°C
Heat Index: 91°F , 33°C
Dew Point: 79°F , 26°C
Humidity: 89%
Barometer: 29.98 inHg , 1015.2 hPa
Clouds: Mostly cloudy
Visibility: 10 miles , 16 km
Cloud details: Few Clouds 2000 ft
Partly cloudy 19000 ft
Mostly cloudy 25000 ft
2017/08/23 13:53 KMSY 231353Z 30003KT 10SM FEW020 SCT190 BKN250 28/26 A2998 RMK AO2 SLP154 T02780256
KJKA - Gulf Shores, Alabama, USA
Distance from station: SE 130mi, 210km
Updated: Wed, 23-Aug-2017 8:35am CDT
Clear
Clear
 Wind from N
Wind: N 5 mph , 7 km/h
Temperature: 81°F , 27°C
Heat Index: 89°F , 32°C
Dew Point: 79°F , 26°C
Humidity: 94%
Barometer: 29.98 inHg , 1015.2 hPa
Clouds: Clear
Visibility: 10 miles , 16 km
2017/08/23 13:35 KJKA 231335Z AUTO 36004KT 10SM CLR 27/26 A2998 RMK AO2 T02700256
 
KGTR - Golden Triangle Airport, Mississippi, USA
Distance from station: NNE 132mi, 212km
Updated: Wed, 23-Aug-2017 8:45am CDT
Partly cloudy
Partly cloudy
 Wind from NNE
Wind: NNE 9 mph , 15 km/h
Temperature: 81°F , 27°C
Heat Index: 84°F , 29°C
Dew Point: 68°F , 20°C
Humidity: 66%
Barometer: 29.97 inHg , 1014.9 hPa
Clouds: Partly cloudy
Visibility: 10 miles , 16 km
Cloud details: Partly cloudy 1000 ft
2017/08/23 13:45 KGTR 231345Z 02008KT 10SM SCT010 27/20 A2997
KBTR - Baton Rouge, Louisiana, USA
Distance from station: SW 147mi, 236km
Updated: Wed, 23-Aug-2017 8:53am CDT
Clear
Clear
 Wind from N
Wind: N 3 mph , 6 km/h
Temperature: 81°F , 27°C
Heat Index: 86°F , 30°C
Dew Point: 73°F , 23°C
Humidity: 79%
Barometer: 30.00 inHg , 1015.9 hPa
Clouds: Clear
Visibility: 10 miles , 16 km
2017/08/23 13:53 KBTR 231353Z 01003KT 10SM CLR 27/23 A3000 RMK AO2 SLP157 T02670228
 
KMGM - Montgomery, Alabama, USA
Distance from station: ENE 172mi, 277km
Updated: Wed, 23-Aug-2017 8:53am CDT
Mostly cloudy
Mostly cloudy
 Wind from calm
Wind: Calm
Temperature: 82°F , 28°C
Heat Index: 89°F , 32°C
Dew Point: 75°F , 24°C
Humidity: 79%
Barometer: 29.99 inHg , 1015.6 hPa
Clouds: Mostly cloudy
Visibility: 10 miles , 16 km
Cloud details: Mostly cloudy 800 ft
2017/08/23 13:53 KMGM 231353Z 00000KT 10SM BKN008 28/24 A2999 RMK AO2 SLP152 T02830239
KBHM - Birmingham, Alabama, USA
Distance from station: ENE 198mi, 318km
Updated: Wed, 23-Aug-2017 8:53am CDT
Mostly cloudy
Mostly cloudy
 Wind from NNW
Wind: NNW 9 mph , 15 km/h
Temperature: 75°F , 24°C
Dew Point: 72°F , 22°C
Humidity: 89%
Barometer: 30.04 inHg , 1017.3 hPa
Clouds: Mostly cloudy
Visibility: 10 miles , 16 km
Cloud details: Partly cloudy 1100 ft
Mostly cloudy 25000 ft
2017/08/23 13:53 KBHM 231353Z 33008KT 10SM SCT011 BKN250 24/22 A3004 RMK AO2 SLP163 T02440217
 
KMEM - Memphis, Tennessee, USA
Distance from station: NNW 242mi, 389km
Updated: Wed, 23-Aug-2017 8:54am CDT
Mostly cloudy
Mostly cloudy
 Wind from E
Wind: E 6 mph , 9 km/h
Temperature: 79°F , 26°C
Dew Point: 70°F , 21°C
Humidity: 74%
Barometer: 30.05 inHg , 1017.6 hPa
Clouds: Mostly cloudy
Visibility: 10 miles , 16 km
Cloud details: Few Clouds 4400 ft
Mostly cloudy 8000 ft
2017/08/23 13:54 KMEM 231354Z 09005KT 10SM FEW044 BKN080 26/21 A3005 RMK AO2 SLP170 T02610206
KHSV - Huntsville, Alabama, USA
Distance from station: NE 252mi, 406km
Updated: Wed, 23-Aug-2017 8:53am CDT
Mostly cloudy
Mostly cloudy
 Wind from NE
Wind: NE 9 mph , 15 km/h
Temperature: 79°F , 26°C
Dew Point: 72°F , 22°C
Humidity: 79%
Barometer: 30.03 inHg , 1016.9 hPa
Clouds: Mostly cloudy
Visibility: 10 miles , 16 km
Cloud details: Mostly cloudy 1700 ft
Mostly cloudy 25000 ft
2017/08/23 13:53 KHSV 231353Z 05008KT 10SM BKN017 BKN250 26/22 A3003 RMK AO2 SLP161 T02610217
 
KM54 - Lebanon, Tennessee, USA
Distance from station: NNE 357mi, 575km
Updated: Thu, 08-Sep-2011 11:45am CDT
NOT Current
Overcast
Overcast
 Wind from WNW
Wind: WNW 5 mph , 7 km/h
Temperature: 64°F , 18°C
Dew Point: 55°F , 13°C
Humidity: 73%
Barometer: 29.99 inHg , 1015.6 hPa
Clouds: Overcast
Visibility: 10 miles , 16 km
Cloud details: Overcast 3100 ft
2011/09/08 16:45 KM54 081645Z AUTO 29004KT 10SM OVC031 18/13 A2999 RMK AO1 OVC V BKN $
KJLN - Joplin, Missouri USA
Distance from station: NW 486mi, 782km
Updated: Wed, 23-Aug-2017 8:53am CDT
Clear
Clear
 Wind from ENE
Wind: ENE 6 mph , 9 km/h
Temperature: 68°F , 20°C
Dew Point: 61°F , 16°C
Humidity: 78%
Barometer: 30.14 inHg , 1020.7 hPa
Clouds: Clear
Visibility: 10 miles , 16 km
2017/08/23 13:53 KJLN 231353Z 06005KT 10SM CLR 20/16 A3014 RMK AO2 SLP199 T02000156
 
KOKC - Oklahoma City, Oklahoma USA
Distance from station: WNW 547mi, 881km
Updated: Wed, 23-Aug-2017 8:52am CDT
Partly cloudy
Partly cloudy
 Wind from ENE
Wind: ENE 13 mph , 20 km/h
Temperature: 72°F , 22°C
Dew Point: 64°F , 18°C
Humidity: 78%
Barometer: 30.11 inHg , 1019.6 hPa
Clouds: Partly cloudy
Visibility: 10 miles , 16 km
Cloud details: Few Clouds 1100 ft
Partly cloudy 6500 ft
Partly cloudy 18000 ft
2017/08/23 13:52 KOKC 231352Z 07011KT 10SM FEW011 SCT065 SCT180 22/18 A3011 RMK AO2 SLP185 T02170183